Address 0x45B75f0A695d3CFe8688D0910E997600D3E244cE 11

 
Txn Hash Method
Block
From
To
Value [Txn Fee]
0x223fcb3ebaa53b41834fc09fcc1e0419f01191bc12134eea21f5b9423c327d6cSwap Exact Input...2230020472024-06-18 2:23:412 hrs 52 mins ago0x45b75f0a695d3cfe8688d0910e997600d3e244ceOUT 0x22d0fdabd92b6bca3a0f541730f9a81a8b1a36570 ETH0.00001655 0.071617
0x885514fb98852193d61e0f2874fda3984c4c492cbfa4a0b38674c320cd6cfe2bSwap Exact Input...2229820512024-06-18 0:59:174 hrs 16 mins ago0x45b75f0a695d3cfe8688d0910e997600d3e244ceOUT 0x22d0fdabd92b6bca3a0f541730f9a81a8b1a36570 ETH0.00000359 0.013616
0x8a77c40fe4c1b366299b857295c1e02d01e1291e4c76c7dba87461a487261ee9Swap Exact Input...2229663272024-06-17 23:53:035 hrs 23 mins ago0x45b75f0a695d3cfe8688d0910e997600d3e244ceOUT 0x22d0fdabd92b6bca3a0f541730f9a81a8b1a36570 ETH0.00000236 0.01
0xd073fad8c5cad75da8247929cee12dfb31349b106871196fb1dafe2a54a7d20dSwap Exact Input...2229504912024-06-17 22:46:466 hrs 29 mins ago0x45b75f0a695d3cfe8688d0910e997600d3e244ceOUT 0x22d0fdabd92b6bca3a0f541730f9a81a8b1a36570 ETH0.00000255 0.01
0x9e382b046f60a4915be46b94332847f33c9d5423d8b16cfde7a3fd7dfa4a204fSwap Exact Input...2229346202024-06-17 21:40:317 hrs 35 mins ago0x45b75f0a695d3cfe8688d0910e997600d3e244ceOUT 0x22d0fdabd92b6bca3a0f541730f9a81a8b1a36570 ETH0.00000287 0.01
0x31c67afa71c4844364393ef03c2dfbd65eba3a31408f6ef2b794b8dafaf264beSwap Exact Input...2229188812024-06-17 20:34:168 hrs 41 mins ago0x45b75f0a695d3cfe8688d0910e997600d3e244ceOUT 0x22d0fdabd92b6bca3a0f541730f9a81a8b1a36570 ETH0.00000318 0.01
0x46b92081339ee93672a52f15befda533c75474ef648a90c08fb1d2b5e8acd473Swap Exact Input...2229030102024-06-17 19:28:019 hrs 48 mins ago0x45b75f0a695d3cfe8688d0910e997600d3e244ceOUT 0x22d0fdabd92b6bca3a0f541730f9a81a8b1a36570 ETH0.00000295 0.01
0x3bd2102abd8f5edd64409d073cc0f57b44dee41ed7a16c56e5fdf6c2399b80c1Swap Exact Input...2228871752024-06-17 18:21:4510 hrs 54 mins ago0x45b75f0a695d3cfe8688d0910e997600d3e244ceOUT 0x22d0fdabd92b6bca3a0f541730f9a81a8b1a36570 ETH0.00000403 0.01
0x7840446d16c0aca67a1adaef9931668f79da078e8aa7cfe5b7a59e5f01ad632dSwap Exact Input...2228713862024-06-17 17:15:3112 hrs ago0x45b75f0a695d3cfe8688d0910e997600d3e244ceOUT 0x22d0fdabd92b6bca3a0f541730f9a81a8b1a36570 ETH0.00000442 0.010103
0xcbc7003f28cd20a70177b6b00224ab9c8e95e14ede5ae03c4b576df628fa47d8Swap Exact Input...2228556682024-06-17 16:09:1613 hrs 6 mins ago0x45b75f0a695d3cfe8688d0910e997600d3e244ceOUT 0x22d0fdabd92b6bca3a0f541730f9a81a8b1a36570 ETH0.00000359 0.01
0x18d6394401b59d5090c45fa32bca263ef1c83736cc41fc2e6f323db14e002454Swap Exact Input...2228398222024-06-17 15:03:0214 hrs 13 mins ago0x45b75f0a695d3cfe8688d0910e997600d3e244ceOUT 0x22d0fdabd92b6bca3a0f541730f9a81a8b1a36570 ETH0.00000319 0.01
0x717f9c5db8ef825dbb0046e6d7afe02165606fefd929b1d0124d71ee20584a08Swap Exact Input...2224180832024-06-16 9:43:261 day 19 hrs ago0x45b75f0a695d3cfe8688d0910e997600d3e244ceOUT 0x22d0fdabd92b6bca3a0f541730f9a81a8b1a36570 ETH0.00000239 0.01
0xcf773115e4fba373bd9f6def85841418288daf19a36f271c88ae6bc6df03769cSwap Exact Input...2224021492024-06-16 8:37:131 day 20 hrs ago0x45b75f0a695d3cfe8688d0910e997600d3e244ceOUT 0x22d0fdabd92b6bca3a0f541730f9a81a8b1a36570 ETH0.00000224 0.01
0x2cbadea186be6c6c99515687ad5afaf67cade5a0d9a503f42ed7ec3afdd23fd1Swap Exact Input...2223860552024-06-16 7:30:191 day 21 hrs ago0x45b75f0a695d3cfe8688d0910e997600d3e244ceOUT 0x22d0fdabd92b6bca3a0f541730f9a81a8b1a36570 ETH0.00000234 0.01
0x55a0059bacda7a964c6712e7aad76117490c2ce9e6c9848f27c6a2d1b9a2c9e5Swap Exact Input...2223701172024-06-16 6:24:051 day 22 hrs ago0x45b75f0a695d3cfe8688d0910e997600d3e244ceOUT 0x22d0fdabd92b6bca3a0f541730f9a81a8b1a36570 ETH0.00000222 0.01
0xcd115dc4704b14228d3b00023850547222b0219d7619c8c7817ac2088d1eca06Swap Exact Input...2223541882024-06-16 5:17:461 day 23 hrs ago0x45b75f0a695d3cfe8688d0910e997600d3e244ceOUT 0x22d0fdabd92b6bca3a0f541730f9a81a8b1a36570 ETH0.00000218 0.01
0x36b42a4a01a46a8689dd16fa1bb3809a86e68fe61bf643444629dc6cc25d9120Swap Exact Input...2223382722024-06-16 4:11:292 days 1 hr ago0x45b75f0a695d3cfe8688d0910e997600d3e244ceOUT 0x22d0fdabd92b6bca3a0f541730f9a81a8b1a36570 ETH0.00000214 0.01
0xe7b9dd5199ddcf5df6c47662841783ad9d5ae4baf293ad3d14af0f39030b8e49Swap Exact Input...2217266682024-06-14 9:43:393 days 19 hrs ago0x45b75f0a695d3cfe8688d0910e997600d3e244ceOUT 0x22d0fdabd92b6bca3a0f541730f9a81a8b1a36570 ETH0.00000269 0.01
0x411e23ae1f774163572cfe2780971fb35ee2f5c6ec605cee3cb6c44a10b0eb9aSwap Exact Input...2217107482024-06-14 8:37:253 days 20 hrs ago0x45b75f0a695d3cfe8688d0910e997600d3e244ceOUT 0x22d0fdabd92b6bca3a0f541730f9a81a8b1a36570 ETH0.00000267 0.01
0x8daea0c99e5e8bc5f56c392e92e8b03e8aa502f7f23546f04c640ec2e1d94416Swap Exact Input...2202475492024-06-10 3:02:048 days 2 hrs ago0x45b75f0a695d3cfe8688d0910e997600d3e244ceOUT 0x22d0fdabd92b6bca3a0f541730f9a81a8b1a36570 ETH0.00000228 0.01
0xb0d736b86c05ea3681266ccf93730ef77327548f88ecbacb0fbbd1de3e2f9f02Swap Exact Input...2192636572024-06-07 6:32:1910 days 22 hrs ago0x45b75f0a695d3cfe8688d0910e997600d3e244ceOUT 0x22d0fdabd92b6bca3a0f541730f9a81a8b1a36570 ETH0.00000282 0.01
0x2eee640585cbb23cd84f512b9b1d5422044b74c48e1c903c5d39a243c630ab64Swap Exact Input...2192477662024-06-07 5:26:0510 days 23 hrs ago0x45b75f0a695d3cfe8688d0910e997600d3e244ceOUT 0x22d0fdabd92b6bca3a0f541730f9a81a8b1a36570 ETH0.00000279 0.01
0x700a406d1dc14fb7258fa1ac73bbcb7df8a130035a25aefa67f036028c792099Swap Exact Input...2192319102024-06-07 4:19:4811 days 56 mins ago0x45b75f0a695d3cfe8688d0910e997600d3e244ceOUT 0x22d0fdabd92b6bca3a0f541730f9a81a8b1a36570 ETH0.00000282 0.01
0x9e1544572c9130ec2624585e8ec29f7cd1c056f3bb2de465fd7b044efe13fae9Swap Exact Input...2192160342024-06-07 3:13:3411 days 2 hrs ago0x45b75f0a695d3cfe8688d0910e997600d3e244ceOUT 0x22d0fdabd92b6bca3a0f541730f9a81a8b1a36570 ETH0.00000264 0.01
0x0d02769d3c876ff2f3db6acc340385761335deaf3fe86a06f2caae1d9dc6cf09Swap Exact Input...2192001532024-06-07 2:07:1911 days 3 hrs ago0x45b75f0a695d3cfe8688d0910e997600d3e244ceOUT 0x22d0fdabd92b6bca3a0f541730f9a81a8b1a36570 ETH0.00000272 0.01
[ Download CSV Export 
Latest 4 internal transactions
Parent Txn Hash Block From To Value
0x839e48e3959e016f4396dde4f74ddcb4db461b769f2522f818237c93401e466e1738883962024-01-25 2:13:15145 days 3 hrs ago Wrapped Ether0x45b75f0a695d3cfe8688d0910e997600d3e244ce0.31235924574407375 ETH
0xb8dc8d1cb13b09995d36e6e11d098a0988bd86503d10424284edfd8fef2ae93f1614769822023-12-19 4:33:45182 days 42 mins ago Wrapped Ether0x45b75f0a695d3cfe8688d0910e997600d3e244ce0.02 ETH
0x978596c795e83a3090e6049acc70546ac3e5c764c9e1e6eaffed14537ccf92591596509702023-12-13 8:22:52187 days 20 hrs ago Wrapped Ether0x45b75f0a695d3cfe8688d0910e997600d3e244ce0.01 ETH
0x8b0dd9b6f6e8e4598f751d91725f9a2596bb0fd18dbda0274b8d54eb1cbbc9731418812382023-10-19 3:37:10243 days 1 hr ago Wrapped Ether0x45b75f0a695d3cfe8688d0910e997600d3e244ce0.26796768076463709 ETH
[ Download CSV Export 
Loading

Contract Name:
0 ETH

Compiler Version
0

Optimization Enabled:
0 ETH

Other Settings:
-NA-
Block Transaction Gas Used Reward
Age Block Fee Address BC Fee Address Voting Power Jailed Incoming
Block Uncle Number Difficulty Gas Used Reward
Loading
Make sure to use the "Vote Down" button for any spammy posts, and the "Vote Up" for interesting conversations.